CheckWX is a tool to help pilots better visualize weather data.  It is not intended as a substitute for an official pre-flight weather briefing.

05:17:28 UTC

ESNS METAR
Skellefteå Airport
Skellefteå, Sweden
Current

27 mins ago

ESNS 200450Z 33017G28KT 9999 -SN FEW045 M08/M12 Q0996
Observed
Feb-20 @ 04:50 UTC
Wind
  • 330° at 17 KTS
  • Gusting to 28 KTS
Visibility
10,000+ meters
Flight Rules
VFR
Conditions
Light Snow
Cloud Levels
  • Few at 4,500' AGL
Temperature
-8°C / 18°F
Dewpoint
-12°C / 10°F
Humidity
73%
Altimeter
29.41" Hg
Pressure
995.92 hPa
Previous

57 mins ago

ESNS 200420Z AUTO 32017G28KT 4800 -SN OVC070/// M07/M12 Q0995
Observed
Feb-20 @ 04:20 UTC
Wind
  • 320° at 17 KTS
  • Gusting to 28 KTS
Visibility
4,796 meters
Flight Rules
IFR
Conditions
Light Snow
Cloud Levels
  • Overcast at 7,000' AGL
Temperature
-7°C / 19°F
Dewpoint
-12°C / 10°F
Humidity
68%
Altimeter
29.38" Hg
Pressure
994.92 hPa
Previous

1 hour ago

ESNS 200350Z AUTO 32016KT 290V350 8000 BKN039/// OVC066/// M07/M12 Q0994
Observed
Feb-20 @ 03:50 UTC
Wind
  • 320° at 16 KTS
Visibility
7,998 meters
Flight Rules
MVFR
Cloud Levels
  • Broken at 3,900' AGL
  • Overcast at 6,600' AGL
Temperature
-7°C / 19°F
Dewpoint
-12°C / 10°F
Humidity
68%
Altimeter
29.35" Hg
Pressure
993.92 hPa